Pays
Station

 

Conditions  météo  pour  Phoenix, Phoenix Sky Harbor International Airport  -  Etats-Unis    Etats-Unis

  
34 °C
    
 
 

METAR pour Phoenix, Phoenix Sky Harbor International Airport :

KPHX 230351Z 15007KT 10SM CLR 34/08 A2981 RMK AO2 SLP074 T03390078

 

Voici le bulletin pour Phoenix, Phoenix Sky Harbor International Airport - Etats-Unis.
 
Le bulletin a été fait il y a 32 minutes, à 03:51 UTC .
Le vent soufflait à la vitesse de 3.6 mètres par seconde de Sud/Sud-est (150°).
 
La température était de 34 °C, avec un point de rosée à 8 °C.
La température ressentie était de 32 °C.
 
La pression atmosphérique était de 1009 hPa.
L'humidité relative était de 20.2%.
 
Le ciel était clair.
 
La visibilité globale était de 16.1 kilomètres.
 

 
 
 

Pays :   A   B   C   D   E   F   G   H   I   J   K   L   M   N   O   P   Q   R   S   T   U   V   W   Y   Z

 

Partenaires :  Info Météo avec Met'info
Météo Marine avec MeteoMarine.net
Infos Site  |  Infos Légales  |  Crédits  |  Confidentialité
Contactez-nous  |  Ajouter aux favoris
© 2013-2018 METAR - Tous droits réservés